Ocean Tomo — 3FID9 — position and weather

sailwx.info

Track history (hours):
 
Tides and Currents Weather Stations Pressure Air Temp Water Temp Dewpoint Dewpoint Depression Visibility Wind Speed Wind Dir Waves Ship Positions

Ocean Tomo

Last reported at 2014-Dec-18 01:27 UTC. Time now 2014-Dec-23 05:09 UTC.
Position N 35°04' E 139°41'.

Length 190 m; draft 9.8 m.

Type: Ship. MMSI: 372951000.

Date/timePositionNaut miles runAvg speedWind from/ knotsBaromVisibWave heightAir tempDewpointWater temp
2014-Dec-18 01:27N 35°04' E 139°41'1011.2
2014-Dec-18 00:33N 35°13' E 139°46'1111.1
2014-Dec-17 23:34N 35°24' E 139°43'1211.6
2014-Dec-17 22:33N 35°31' E 139°54'1010.0
2014-Dec-17 21:32N 35°36' E 140°05'  
2014-Dec-15 00:29N 35°34' E 140°02'1011.2
2014-Dec-14 23:34N 35°28' E 139°52'1212.1
2014-Dec-14 22:34N 35°18' E 139°45'10 9.8
2014-Dec-14 21:33N 35°08' E 139°45'7 6.4
2014-Dec-14 20:26N 35°01' E 139°43'5 4.6
2014-Dec-14 19:21N 34°56' E 139°42'  
Track history (hours):
 
Tides and Currents Weather Stations Pressure Air Temp Water Temp Dewpoint Dewpoint Depression Visibility Wind Speed Wind Dir Waves Ship Positions

Ocean Tomo

Last reported at 2014-Dec-18 01:27 UTC. Time now 2014-Dec-23 05:09 UTC.
Position N 35°04' E 139°41'.

Length 190 m; draft 9.8 m.

Type: Ship. MMSI: 372951000.

Date/timePositionNaut miles runAvg speedWind from/ knotsBaromVisibWave heightAir tempDewpointWater temp
2014-Dec-18 01:27N 35°04' E 139°41'1011.2
2014-Dec-18 00:33N 35°13' E 139°46'1111.1
2014-Dec-17 23:34N 35°24' E 139°43'1211.6
2014-Dec-17 22:33N 35°31' E 139°54'1010.0
2014-Dec-17 21:32N 35°36' E 140°05'  
2014-Dec-15 00:29N 35°34' E 140°02'1011.2
2014-Dec-14 23:34N 35°28' E 139°52'1212.1
2014-Dec-14 22:34N 35°18' E 139°45'10 9.8
2014-Dec-14 21:33N 35°08' E 139°45'7 6.4
2014-Dec-14 20:26N 35°01' E 139°43'5 4.6
2014-Dec-14 19:21N 34°56' E 139°42'  

Dump ship's entire track history